createdAt,value
2022-10-05T00:07:45.798Z,101772.22
2022-10-05T00:10:24.584Z,101773.59
2022-10-05T00:12:52.053Z,101775.50
2022-10-05T00:15:25.432Z,101774.97
2022-10-05T00:18:21.475Z,101772.22
2022-10-05T00:20:55.206Z,101774.16
2022-10-05T00:23:29.006Z,101767.31
2022-10-05T00:26:27.050Z,101761.06
2022-10-05T00:28:55.809Z,101753.66
2022-10-05T00:31:53.044Z,101747.13
2022-10-05T00:34:23.730Z,101740.56
2022-10-05T00:36:58.587Z,101745.22
2022-10-05T00:39:50.238Z,101744.38
2022-10-05T00:42:35.863Z,101748.22
2022-10-05T00:45:18.902Z,101738.66
2022-10-05T00:48:32.941Z,101738.13
2022-10-05T00:55:20.965Z,101737.84
2022-10-05T00:58:23.771Z,101739.47
2022-10-05T01:01:06.172Z,101738.66
2022-10-05T01:03:44.760Z,101732.38
2022-10-05T01:14:36.117Z,101724.47
2022-10-05T01:21:00.138Z,101720.66
2022-10-05T01:24:04.284Z,101720.13
2022-10-05T01:26:51.321Z,101712.72
2022-10-05T01:29:34.094Z,101700.72
2022-10-05T01:32:46.623Z,101688.72
2022-10-05T01:36:01.157Z,101678.88
2022-10-05T01:38:52.940Z,101677.25
2022-10-05T01:41:42.570Z,101679.44
2022-10-05T01:44:28.795Z,101677.81
2022-10-05T01:47:12.790Z,101658.44
2022-10-05T01:49:47.515Z,101668.00
2022-10-05T01:52:59.047Z,101674.03
2022-10-05T01:56:14.626Z,101656.56
2022-10-05T02:01:39.074Z,101650.00
2022-10-05T02:05:00.241Z,101636.38
2022-10-05T02:07:33.573Z,101629.53
2022-10-05T02:10:09.197Z,101632.03
2022-10-05T02:13:09.953Z,101631.19
2022-10-05T02:18:22.506Z,101622.19
2022-10-05T02:20:59.595Z,101631.47
2022-10-05T02:23:39.540Z,101638.56
2022-10-05T02:26:11.256Z,101621.66
2022-10-05T02:28:46.662Z,101628.75
2022-10-05T02:31:52.771Z,101630.09
2022-10-05T02:34:36.367Z,101615.09
2022-10-05T02:37:30.100Z,101599.28
2022-10-05T02:43:52.930Z,101621.38
2022-10-05T02:47:05.588Z,101618.38
2022-10-05T02:49:49.161Z,101611.00
2022-10-05T02:52:46.314Z,101599.84
2022-10-05T02:55:53.824Z,101591.09
2022-10-05T02:58:57.820Z,101593.00
2022-10-05T03:02:04.147Z,101588.38
2022-10-05T03:04:56.731Z,101605.28
2022-10-05T03:07:43.552Z,101602.56
2022-10-05T03:10:20.121Z,101595.47
2022-10-05T03:13:06.471Z,101603.13
2022-10-05T03:15:55.200Z,101601.47
2022-10-05T03:27:02.225Z,101607.72
2022-10-05T03:29:57.794Z,101606.38
2022-10-05T03:33:01.104Z,101605.84
2022-10-05T03:35:53.418Z,101609.38
2022-10-05T03:38:34.805Z,101607.19
2022-10-05T03:41:57.698Z,101608.81
2022-10-05T03:56:36.282Z,101602.81
2022-10-05T04:01:56.373Z,101599.28
2022-10-05T04:04:55.058Z,101594.38
2022-10-05T04:08:15.918Z,101587.00
2022-10-05T04:10:49.693Z,101582.63
2022-10-05T04:17:58.457Z,101579.66
2022-10-05T04:20:46.911Z,101582.63
2022-10-05T04:23:36.549Z,101574.19
2022-10-05T04:30:05.378Z,101569.00
2022-10-05T04:32:44.251Z,101571.19
2022-10-05T04:35:48.459Z,101566.56
2022-10-05T04:49:57.802Z,101548.56
2022-10-05T04:53:18.229Z,101546.91
2022-10-05T04:56:18.650Z,101549.34
2022-10-05T05:02:01.374Z,101552.38
2022-10-05T05:08:08.696Z,101556.44
2022-10-05T05:13:58.305Z,101541.47
2022-10-05T05:19:34.025Z,101529.19
2022-10-05T05:22:06.524Z,101528.38
2022-10-05T05:24:46.849Z,101526.75
2022-10-05T05:28:03.572Z,101535.19
2022-10-05T05:30:48.924Z,101527.28
2022-10-05T05:34:10.335Z,101526.75
2022-10-05T05:37:07.481Z,101521.56
2022-10-05T05:39:56.970Z,101527.84
2022-10-05T05:42:51.779Z,101528.63
2022-10-05T05:55:12.786Z,101530.03
2022-10-05T05:57:50.597Z,101531.38
2022-10-05T06:03:54.525Z,101524.56
2022-10-05T06:07:04.123Z,101519.91
2022-10-05T06:10:08.493Z,101520.75
2022-10-05T06:12:54.985Z,101525.66
2022-10-05T06:15:36.136Z,101527.56
2022-10-05T06:18:31.475Z,101531.66
2022-10-05T06:27:43.370Z,101521.56
2022-10-05T06:34:07.612Z,101527.84
2022-10-05T06:36:46.019Z,101529.47
2022-10-05T06:44:02.627Z,101532.19
2022-10-05T06:46:50.483Z,101530.81
2022-10-05T06:50:04.885Z,101536.03
2022-10-05T06:53:00.322Z,101531.66
2022-10-05T06:55:42.733Z,101533.53
2022-10-05T06:58:48.868Z,101537.09
2022-10-05T07:01:54.896Z,101539.28
2022-10-05T07:07:52.340Z,101538.72
2022-10-05T07:13:39.983Z,101536.53
2022-10-05T07:16:21.191Z,101530.56
2022-10-05T07:19:28.687Z,101533.53
2022-10-05T07:22:56.533Z,101529.44
2022-10-05T07:26:22.101Z,101528.34
2022-10-05T07:29:07.304Z,101533.81
2022-10-05T07:32:16.508Z,101533.81
2022-10-05T07:35:08.457Z,101528.88
2022-10-05T07:38:28.818Z,101529.97
2022-10-05T07:41:06.464Z,101535.16
2022-10-05T07:44:17.094Z,101530.53
2022-10-05T07:50:21.100Z,101528.34
2022-10-05T07:56:21.996Z,101526.16
2022-10-05T07:59:01.708Z,101526.16
2022-10-05T08:01:52.207Z,101522.88
2022-10-05T08:05:29.040Z,101525.84
2022-10-05T08:08:36.019Z,101525.31
2022-10-05T08:11:48.744Z,101524.50
2022-10-05T08:14:46.876Z,101523.41
2022-10-05T08:17:24.039Z,101511.41
2022-10-05T08:20:26.488Z,101520.13
2022-10-05T08:23:32.784Z,101506.47
2022-10-05T08:26:37.274Z,101512.44
2022-10-05T08:29:13.780Z,101507.81
2022-10-05T08:35:02.303Z,101506.44
2022-10-05T08:43:48.054Z,101500.94
2022-10-05T08:49:42.211Z,101503.66
2022-10-05T08:52:22.125Z,101494.38
2022-10-05T08:55:30.620Z,101498.75
2022-10-05T08:58:50.604Z,101497.94
2022-10-05T09:02:05.856Z,101488.66
2022-10-05T09:11:07.134Z,101491.63
2022-10-05T09:13:58.640Z,101487.25
2022-10-05T09:16:32.005Z,101477.94
2022-10-05T09:19:36.132Z,101486.13
2022-10-05T09:22:33.812Z,101483.69
2022-10-05T09:25:44.537Z,101477.38
2022-10-05T09:28:51.821Z,101476.81
2022-10-05T09:31:37.853Z,101465.34
2022-10-05T09:34:45.548Z,101476.81
2022-10-05T09:37:28.721Z,101470.50
2022-10-05T09:40:26.601Z,101466.91
2022-10-05T09:46:57.591Z,101464.13
2022-10-05T09:50:07.942Z,101459.19
2022-10-05T09:53:14.225Z,101454.78
2022-10-05T09:56:09.344Z,101456.66
2022-10-05T09:59:29.036Z,101451.47
2022-10-05T10:02:47.497Z,101446.22
2022-10-05T10:27:54.530Z,101430.03
2022-10-05T10:45:00.078Z,101423.06
2022-10-05T10:47:45.327Z,101417.06
2022-10-05T10:50:47.851Z,101418.69
2022-10-05T10:53:29.908Z,101408.88
2022-10-05T10:56:40.141Z,101414.34
2022-10-05T10:59:47.537Z,101407.25
2022-10-05T11:02:23.028Z,101408.88
2022-10-05T11:05:08.151Z,101406.97
2022-10-05T11:08:13.524Z,101404.50
2022-10-05T11:11:03.227Z,101400.66
2022-10-05T11:14:08.734Z,101393.28
2022-10-05T11:16:57.384Z,101400.38
2022-10-05T11:20:05.482Z,101403.41
2022-10-05T11:22:50.310Z,101397.94
2022-10-05T11:25:53.992Z,101393.81
2022-10-05T11:28:54.284Z,101395.16
2022-10-05T11:31:54.095Z,101392.41
2022-10-05T11:34:29.543Z,101385.03
2022-10-05T11:37:15.899Z,101380.09
2022-10-05T11:40:07.759Z,101381.41
2022-10-05T11:42:56.873Z,101374.84
2022-10-05T11:45:26.297Z,101382.75
2022-10-05T11:48:14.709Z,101380.25
2022-10-05T11:50:53.333Z,101371.78
2022-10-05T11:53:25.680Z,101378.56
2022-10-05T11:56:04.900Z,101358.03
2022-10-05T11:58:53.340Z,101367.56
2022-10-05T12:01:31.916Z,101361.53
2022-10-05T12:04:45.318Z,101357.63
2022-10-05T12:07:25.271Z,101354.81
2022-10-05T12:10:14.218Z,101355.34
2022-10-05T12:13:04.000Z,101362.97
2022-10-05T12:15:55.290Z,101343.81
2022-10-05T12:18:46.784Z,101352.53
2022-10-05T12:21:23.835Z,101345.44
2022-10-05T12:23:53.595Z,101348.69
2022-10-05T12:26:49.492Z,101349.72
2022-10-05T12:29:29.044Z,101345.59
2022-10-05T12:32:03.177Z,101338.41
2022-10-05T12:34:48.751Z,101342.50
2022-10-05T12:38:04.224Z,101337.53
2022-10-05T12:40:59.024Z,101322.44
2022-10-05T12:43:51.380Z,101336.03
2022-10-05T12:46:59.226Z,101335.44
2022-10-05T12:49:49.999Z,101337.59
2022-10-05T12:52:39.362Z,101328.00
2022-10-05T12:55:16.820Z,101325.47
2022-10-05T12:58:01.415Z,101336.09
2022-10-05T13:00:31.874Z,101334.47
2022-10-05T13:03:34.333Z,101333.66
2022-10-05T13:06:38.331Z,101331.44
2022-10-05T13:09:15.613Z,101329.00
2022-10-05T13:11:52.822Z,101339.16
2022-10-05T13:15:04.292Z,101324.16
2022-10-05T13:17:43.446Z,101321.69
2022-10-05T13:20:35.794Z,101325.25
2022-10-05T13:23:27.214Z,101325.53
2022-10-05T13:26:08.988Z,101323.63
2022-10-05T13:29:00.980Z,101324.44
2022-10-05T13:31:38.043Z,101326.88
2022-10-05T13:34:30.527Z,101326.38
2022-10-05T13:37:18.823Z,101326.38
2022-10-05T13:40:24.213Z,101337.31
2022-10-05T13:42:53.699Z,101330.22
2022-10-05T13:46:07.376Z,101330.22
2022-10-05T13:49:29.374Z,101335.09
2022-10-05T13:52:08.829Z,101319.38
2022-10-05T13:55:25.286Z,101323.94
2022-10-05T13:58:15.499Z,101314.03
2022-10-05T14:01:01.997Z,101317.28
2022-10-05T14:03:38.887Z,101310.41
2022-10-05T14:06:29.898Z,101317.72
2022-10-05T14:08:59.996Z,101315.22
2022-10-05T14:11:35.300Z,101316.00
2022-10-05T14:14:14.420Z,101328.31
2022-10-05T14:17:04.266Z,101318.88
2022-10-05T14:19:33.416Z,101321.31
2022-10-05T14:22:02.417Z,101325.41
2022-10-05T14:24:50.762Z,101321.03
2022-10-05T14:27:47.658Z,101321.81
2022-10-05T14:30:25.817Z,101326.09
2022-10-05T14:33:06.114Z,101330.97
2022-10-05T14:35:53.272Z,101325.81
2022-10-05T14:39:03.645Z,101339.28
2022-10-05T14:41:36.268Z,101341.31
2022-10-05T14:44:08.732Z,101344.44
2022-10-05T14:46:58.804Z,101345.34
2022-10-05T14:49:50.387Z,101355.03
2022-10-05T14:52:32.649Z,101354.00
2022-10-05T14:55:09.705Z,101349.13
2022-10-05T14:57:39.278Z,101357.41
2022-10-05T15:00:13.297Z,101347.03
2022-10-05T15:02:58.456Z,101354.16
2022-10-05T15:09:27.356Z,101349.59
2022-10-05T15:12:40.597Z,101363.47
2022-10-05T15:15:32.809Z,101356.28
2022-10-05T15:18:11.709Z,101344.31
2022-10-05T15:20:46.369Z,101352.63
2022-10-05T15:23:25.894Z,101353.75
2022-10-05T15:26:10.720Z,101344.19
2022-10-05T15:28:54.412Z,101354.09
2022-10-05T15:31:58.127Z,101346.78
2022-10-05T15:34:40.434Z,101349.28
2022-10-05T15:37:16.075Z,101361.13
2022-10-05T15:40:38.879Z,101357.88
2022-10-05T15:43:18.905Z,101363.63
2022-10-05T15:46:41.328Z,101360.69
2022-10-05T15:49:37.071Z,101356.84
2022-10-05T15:52:19.552Z,101363.94
2022-10-05T15:55:22.928Z,101367.78
2022-10-05T15:58:26.084Z,101364.53
2022-10-05T16:01:09.975Z,101361.28
2022-10-05T16:03:47.913Z,101368.97
2022-10-05T16:07:01.017Z,101356.97
2022-10-05T16:09:43.657Z,101360.81
2022-10-05T16:12:34.119Z,101371.75
2022-10-05T16:15:34.579Z,101362.72
2022-10-05T16:18:31.277Z,101363.84
2022-10-05T16:21:29.302Z,101373.16
2022-10-05T16:24:18.300Z,101373.47
2022-10-05T16:27:20.600Z,101378.69
2022-10-05T16:30:02.131Z,101382.84
2022-10-05T16:33:08.834Z,101390.22
2022-10-05T16:35:54.029Z,101389.41
2022-10-05T16:38:34.467Z,101388.88
2022-10-05T16:41:24.577Z,101397.13
2022-10-05T16:44:03.793Z,101392.75
2022-10-05T16:46:58.380Z,101386.75
2022-10-05T16:49:46.854Z,101388.69
2022-10-05T16:52:21.755Z,101401.53
2022-10-05T16:54:53.633Z,101406.22
2022-10-05T16:57:45.311Z,101399.91
2022-10-05T17:00:38.887Z,101389.81
2022-10-05T17:03:51.288Z,101402.13
2022-10-05T17:06:55.060Z,101404.34
2022-10-05T17:09:47.191Z,101409.81
2022-10-05T17:12:42.353Z,101409.81
2022-10-05T17:15:29.057Z,101409.81
2022-10-05T17:18:25.422Z,101410.91
2022-10-05T17:21:10.886Z,101414.75
2022-10-05T17:24:08.272Z,101407.13
2022-10-05T17:26:53.936Z,101414.22
2022-10-05T17:29:32.006Z,101411.50
2022-10-05T17:32:06.546Z,101417.28
2022-10-05T17:34:36.933Z,101403.88
2022-10-05T17:37:37.726Z,101414.53
2022-10-05T17:40:35.156Z,101418.06
2022-10-05T17:43:16.922Z,101440.47
2022-10-05T17:45:43.252Z,101426.78
2022-10-05T17:48:36.045Z,101437.47
2022-10-05T17:51:34.133Z,101441.56
2022-10-05T17:58:00.813Z,101445.13
2022-10-05T18:01:00.876Z,101444.84
2022-10-05T18:03:39.902Z,101446.25
2022-10-05T18:06:30.961Z,101457.97
2022-10-05T18:09:25.967Z,101449.25
2022-10-05T18:12:18.046Z,101449.25
2022-10-05T18:15:03.013Z,101447.34
2022-10-05T18:17:57.272Z,101453.63
2022-10-05T18:20:32.277Z,101457.97
2022-10-05T18:23:09.523Z,101453.88
2022-10-05T18:26:19.974Z,101457.41
2022-10-05T18:29:42.602Z,101455.19
2022-10-05T18:32:43.257Z,101456.81
2022-10-05T18:35:14.791Z,101456.81
2022-10-05T18:38:35.303Z,101469.41
2022-10-05T18:41:18.041Z,101465.56
2022-10-05T18:44:35.292Z,101468.00
2022-10-05T18:47:46.086Z,101471.03
2022-10-05T18:50:23.858Z,101471.28
2022-10-05T18:53:33.108Z,101477.56
2022-10-05T18:56:16.101Z,101483.03
2022-10-05T18:59:04.685Z,101488.50
2022-10-05T19:02:03.379Z,101493.97
2022-10-05T19:05:04.254Z,101503.78
2022-10-05T19:08:10.741Z,101500.50
2022-10-05T19:10:55.196Z,101498.84
2022-10-05T19:14:06.589Z,101505.97
2022-10-05T19:20:55.911Z,101527.25
2022-10-05T19:23:37.545Z,101522.28
2022-10-05T19:26:55.780Z,101534.88
2022-10-05T19:29:36.526Z,101540.34
2022-10-05T19:32:22.899Z,101547.44
2022-10-05T19:35:13.337Z,101555.34
2022-10-05T19:38:02.053Z,101553.44
2022-10-05T19:41:00.678Z,101557.81
2022-10-05T19:43:50.575Z,101555.59
2022-10-05T19:46:43.901Z,101590.06
2022-10-05T19:49:10.787Z,101628.38
2022-10-05T19:51:50.659Z,101649.25
2022-10-05T19:54:34.642Z,101647.22
2022-10-05T19:57:27.417Z,101670.06
2022-10-05T20:00:05.597Z,101669.91
2022-10-05T20:03:12.166Z,101662.94
2022-10-05T20:05:39.632Z,101670.94
2022-10-05T20:08:17.263Z,101672.84
2022-10-05T20:11:09.189Z,101675.06
2022-10-05T20:13:36.267Z,101683.25
2022-10-05T20:16:35.855Z,101699.94
2022-10-05T20:19:44.776Z,101699.38
2022-10-05T20:22:39.637Z,101715.75
2022-10-05T20:25:19.529Z,101722.03
2022-10-05T20:27:47.714Z,101731.56
2022-10-05T20:30:28.878Z,101729.94
2022-10-05T20:33:10.589Z,101732.09
2022-10-05T20:35:37.239Z,101749.84
2022-10-05T20:38:10.727Z,101753.13
2022-10-05T20:40:37.267Z,101746.56
2022-10-05T20:43:08.182Z,101749.28
2022-10-05T20:45:47.984Z,101761.84
2022-10-05T20:48:16.508Z,101753.66
2022-10-05T20:51:02.265Z,101759.38
2022-10-05T20:53:46.115Z,101772.75
2022-10-05T20:56:12.759Z,101771.91
2022-10-05T20:58:39.397Z,101785.31
2022-10-05T21:01:23.523Z,101801.66
2022-10-05T21:04:08.421Z,101805.19
2022-10-05T21:06:35.937Z,101808.75
2022-10-05T21:09:02.623Z,101819.66
2022-10-05T21:11:30.123Z,101828.63
2022-10-05T21:14:06.732Z,101856.44
2022-10-05T21:16:38.058Z,101859.16
2022-10-05T21:19:10.411Z,101856.69
2022-10-05T21:21:37.066Z,101838.13
2022-10-05T21:24:11.812Z,101834.59
2022-10-05T21:26:38.339Z,101838.63
2022-10-05T21:29:08.980Z,101844.06
2022-10-05T21:31:38.450Z,101846.25
2022-10-05T21:34:05.268Z,101835.88
2022-10-05T21:36:33.163Z,101849.78
2022-10-05T21:39:01.273Z,101850.59
2022-10-05T21:41:34.009Z,101849.78
2022-10-05T21:44:25.505Z,101857.13
2022-10-05T21:46:52.343Z,101857.41
2022-10-05T21:49:27.688Z,101866.13
2022-10-05T21:52:05.378Z,101867.78
2022-10-05T21:54:32.754Z,101866.38
2022-10-05T21:57:00.167Z,101873.75
2022-10-05T21:59:30.758Z,101880.81
2022-10-05T22:01:57.267Z,101887.03
2022-10-05T22:04:25.084Z,101900.63
2022-10-05T22:06:55.403Z,101902.22
2022-10-05T22:09:24.926Z,101896.72
2022-10-05T22:11:51.479Z,101907.06
2022-10-05T22:14:34.272Z,101917.41
2022-10-05T22:17:00.791Z,101921.22
2022-10-05T22:19:33.533Z,101925.56
2022-10-05T22:22:14.349Z,101920.94
2022-10-05T22:24:57.223Z,101935.34
2022-10-05T22:27:26.336Z,101941.03
2022-10-05T22:30:05.748Z,101950.56
2022-10-05T22:32:37.288Z,101960.34
2022-10-05T22:35:36.855Z,101963.88
2022-10-05T22:38:11.626Z,101971.22
2022-10-05T22:40:38.137Z,101970.41
2022-10-05T22:43:22.022Z,101982.13
2022-10-05T22:45:48.526Z,101980.47
2022-10-05T22:48:16.025Z,101984.53
2022-10-05T22:50:46.429Z,101987.00
2022-10-05T22:53:13.960Z,101994.63
2022-10-05T22:55:40.605Z,101995.69
2022-10-05T22:58:08.106Z,101999.50
2022-10-05T23:00:57.966Z,102014.19
2022-10-05T23:03:25.387Z,102012.56
2022-10-05T23:06:20.439Z,102016.88
2022-10-05T23:08:47.579Z,102016.88
2022-10-05T23:11:17.441Z,102021.75
2022-10-05T23:14:02.465Z,102022.81
2022-10-05T23:16:29.257Z,102029.91
2022-10-05T23:18:56.350Z,102022.81
2022-10-05T23:21:24.611Z,102040.81
2022-10-05T23:23:51.348Z,102044.63
2022-10-05T23:26:20.624Z,102044.00
2022-10-05T23:28:53.444Z,102044.00
2022-10-05T23:31:47.127Z,102047.78
2022-10-05T23:34:14.627Z,102051.06
2022-10-05T23:36:41.084Z,102058.97
2022-10-05T23:39:32.500Z,102061.41
2022-10-05T23:42:00.193Z,102062.47
2022-10-05T23:44:37.901Z,102067.41
2022-10-05T23:47:05.324Z,102075.59
2022-10-05T23:49:31.711Z,102079.44
2022-10-05T23:52:09.475Z,102079.44
2022-10-05T23:54:38.071Z,102090.34
2022-10-05T23:57:04.478Z,102092.50
2022-10-05T23:59:30.876Z,102100.91
